sensor_id;sensor_type;location;lat;lon;timestamp;P1;P2;P0
80289;PMS7003;69592;44.804;-0.550;2023-07-31T00:01:17;7.00;4.00;3.00
80289;PMS7003;69592;44.804;-0.550;2023-07-31T00:03:42;6.67;6.67;4.00
80289;PMS7003;69592;44.804;-0.550;2023-07-31T00:06:08;5.67;5.67;3.67
80289;PMS7003;69592;44.804;-0.550;2023-07-31T00:08:33;5.00;5.00;4.00
80289;PMS7003;69592;44.804;-0.550;2023-07-31T00:10:58;4.67;4.67;4.00
80289;PMS7003;69592;44.804;-0.550;2023-07-31T00:13:24;6.00;5.33;4.00
80289;PMS7003;69592;44.804;-0.550;2023-07-31T00:15:49;8.67;6.00;4.00
80289;PMS7003;69592;44.804;-0.550;2023-07-31T00:18:15;5.00;5.00;4.00
80289;PMS7003;69592;44.804;-0.550;2023-07-31T00:20:40;4.33;4.33;3.00
80289;PMS7003;69592;44.804;-0.550;2023-07-31T00:23:06;5.33;4.00;3.00
80289;PMS7003;69592;44.804;-0.550;2023-07-31T00:25:31;7.00;5.00;3.67
80289;PMS7003;69592;44.804;-0.550;2023-07-31T00:27:57;9.00;7.00;4.00
80289;PMS7003;69592;44.804;-0.550;2023-07-31T00:30:22;5.67;5.00;3.33
80289;PMS7003;69592;44.804;-0.550;2023-07-31T00:32:50;5.33;5.33;4.33
80289;PMS7003;69592;44.804;-0.550;2023-07-31T00:35:15;5.67;5.00;5.00
80289;PMS7003;69592;44.804;-0.550;2023-07-31T00:37:40;5.33;5.33;3.33
80289;PMS7003;69592;44.804;-0.550;2023-07-31T00:40:06;5.00;5.00;3.67
80289;PMS7003;69592;44.804;-0.550;2023-07-31T00:42:32;9.00;6.33;3.67
80289;PMS7003;69592;44.804;-0.550;2023-07-31T00:44:58;4.67;4.67;3.33
80289;PMS7003;69592;44.804;-0.550;2023-07-31T00:47:23;6.67;5.67;4.00
80289;PMS7003;69592;44.804;-0.550;2023-07-31T00:49:48;6.67;5.00;3.00
80289;PMS7003;69592;44.804;-0.550;2023-07-31T00:52:14;5.67;5.00;4.00
80289;PMS7003;69592;44.804;-0.550;2023-07-31T00:54:39;5.67;4.67;4.33
80289;PMS7003;69592;44.804;-0.550;2023-07-31T00:57:05;8.00;6.00;4.00
80289;PMS7003;69592;44.804;-0.550;2023-07-31T00:59:32;7.67;5.67;4.00
80289;PMS7003;69592;44.804;-0.550;2023-07-31T01:01:57;7.00;7.00;5.00
80289;PMS7003;69592;44.804;-0.550;2023-07-31T01:04:23;6.67;5.00;3.33
80289;PMS7003;69592;44.804;-0.550;2023-07-31T01:06:52;6.00;5.00;4.00
80289;PMS7003;69592;44.804;-0.550;2023-07-31T01:12:04;8.67;4.67;2.33
80289;PMS7003;69592;44.804;-0.550;2023-07-31T01:14:32;6.33;6.00;5.00
80289;PMS7003;69592;44.804;-0.550;2023-07-31T01:16:57;7.00;6.67;4.33
80289;PMS7003;69592;44.804;-0.550;2023-07-31T01:19:24;7.67;6.00;4.67
80289;PMS7003;69592;44.804;-0.550;2023-07-31T01:28:18;6.67;6.00;4.67
80289;PMS7003;69592;44.804;-0.550;2023-07-31T01:30:37;5.67;5.00;3.67
80289;PMS7003;69592;44.804;-0.550;2023-07-31T01:33:10;5.00;5.00;3.00
80289;PMS7003;69592;44.804;-0.550;2023-07-31T01:35:35;5.00;5.00;4.00
80289;PMS7003;69592;44.804;-0.550;2023-07-31T01:38:02;7.67;5.67;4.00
80289;PMS7003;69592;44.804;-0.550;2023-07-31T01:40:27;5.00;5.00;4.00
80289;PMS7003;69592;44.804;-0.550;2023-07-31T01:42:53;6.00;6.00;3.00
80289;PMS7003;69592;44.804;-0.550;2023-07-31T01:45:18;7.00;5.67;4.00
80289;PMS7003;69592;44.804;-0.550;2023-07-31T01:47:44;6.00;6.00;4.00
80289;PMS7003;69592;44.804;-0.550;2023-07-31T01:50:09;9.00;5.67;4.00
80289;PMS7003;69592;44.804;-0.550;2023-07-31T01:52:35;8.33;8.00;4.00
80289;PMS7003;69592;44.804;-0.550;2023-07-31T01:55:00;4.00;4.00;3.00
80289;PMS7003;69592;44.804;-0.550;2023-07-31T01:57:26;8.00;6.00;5.00
80289;PMS7003;69592;44.804;-0.550;2023-07-31T01:59:51;11.00;7.00;4.33
80289;PMS7003;69592;44.804;-0.550;2023-07-31T02:02:18;9.67;6.33;4.00
80289;PMS7003;69592;44.804;-0.550;2023-07-31T02:04:44;8.33;8.33;5.00
80289;PMS7003;69592;44.804;-0.550;2023-07-31T02:07:09;5.33;5.33;4.00
80289;PMS7003;69592;44.804;-0.550;2023-07-31T02:09:35;5.00;5.00;3.00
80289;PMS7003;69592;44.804;-0.550;2023-07-31T02:12:00;5.00;5.00;4.33
80289;PMS7003;69592;44.804;-0.550;2023-07-31T02:14:25;6.00;6.00;4.00
80289;PMS7003;69592;44.804;-0.550;2023-07-31T02:16:51;7.00;5.67;4.00
80289;PMS7003;69592;44.804;-0.550;2023-07-31T02:19:17;6.33;6.33;4.00
80289;PMS7003;69592;44.804;-0.550;2023-07-31T02:21:42;7.67;5.67;3.00
80289;PMS7003;69592;44.804;-0.550;2023-07-31T02:24:08;7.33;6.33;3.67
80289;PMS7003;69592;44.804;-0.550;2023-07-31T02:26:35;6.00;6.00;4.00
80289;PMS7003;69592;44.804;-0.550;2023-07-31T02:29:00;5.67;5.67;4.00
80289;PMS7003;69592;44.804;-0.550;2023-07-31T02:31:26;4.00;4.00;3.00
80289;PMS7003;69592;44.804;-0.550;2023-07-31T02:33:51;6.33;5.67;3.67
80289;PMS7003;69592;44.804;-0.550;2023-07-31T02:36:17;8.33;6.00;4.33
80289;PMS7003;69592;44.804;-0.550;2023-07-31T02:38:42;7.00;4.67;3.00
80289;PMS7003;69592;44.804;-0.550;2023-07-31T02:41:07;5.33;5.33;4.00
80289;PMS7003;69592;44.804;-0.550;2023-07-31T02:43:33;5.67;5.67;3.00
80289;PMS7003;69592;44.804;-0.550;2023-07-31T02:45:59;5.00;5.00;3.00
80289;PMS7003;69592;44.804;-0.550;2023-07-31T02:48:24;8.33;5.33;3.00
80289;PMS7003;69592;44.804;-0.550;2023-07-31T02:50:50;8.67;7.00;4.00
80289;PMS7003;69592;44.804;-0.550;2023-07-31T02:53:15;6.00;4.00;3.00
80289;PMS7003;69592;44.804;-0.550;2023-07-31T02:55:41;6.33;5.67;3.00
80289;PMS7003;69592;44.804;-0.550;2023-07-31T02:58:06;7.33;6.00;4.00
80289;PMS7003;69592;44.804;-0.550;2023-07-31T03:00:31;8.00;7.00;4.00
80289;PMS7003;69592;44.804;-0.550;2023-07-31T03:02:57;7.00;4.33;4.00
80289;PMS7003;69592;44.804;-0.550;2023-07-31T03:05:22;4.00;4.00;3.00
80289;PMS7003;69592;44.804;-0.550;2023-07-31T03:07:47;4.33;4.33;3.00
80289;PMS7003;69592;44.804;-0.550;2023-07-31T03:10:13;6.67;5.67;4.67
80289;PMS7003;69592;44.804;-0.550;2023-07-31T03:12:39;6.00;5.33;3.00
80289;PMS7003;69592;44.804;-0.550;2023-07-31T03:15:05;5.00;5.00;4.00
80289;PMS7003;69592;44.804;-0.550;2023-07-31T03:17:31;4.67;4.67;3.67
80289;PMS7003;69592;44.804;-0.550;2023-07-31T03:19:56;10.33;5.33;3.67
80289;PMS7003;69592;44.804;-0.550;2023-07-31T03:22:22;5.00;5.00;3.67
80289;PMS7003;69592;44.804;-0.550;2023-07-31T03:24:47;7.00;5.00;3.33
80289;PMS7003;69592;44.804;-0.550;2023-07-31T03:27:12;6.00;5.00;4.00
80289;PMS7003;69592;44.804;-0.550;2023-07-31T03:29:38;3.67;3.67;1.67
80289;PMS7003;69592;44.804;-0.550;2023-07-31T03:32:03;5.67;4.33;3.00
80289;PMS7003;69592;44.804;-0.550;2023-07-31T03:34:29;6.33;6.33;4.00
80289;PMS7003;69592;44.804;-0.550;2023-07-31T03:36:56;8.00;5.00;4.00
80289;PMS7003;69592;44.804;-0.550;2023-07-31T03:39:22;7.00;6.00;5.00
80289;PMS7003;69592;44.804;-0.550;2023-07-31T03:41:47;8.00;5.33;4.00
80289;PMS7003;69592;44.804;-0.550;2023-07-31T03:44:13;5.67;5.67;4.00
80289;PMS7003;69592;44.804;-0.550;2023-07-31T03:46:38;8.67;6.00;4.00
80289;PMS7003;69592;44.804;-0.550;2023-07-31T03:49:03;10.67;6.00;4.00
80289;PMS7003;69592;44.804;-0.550;2023-07-31T03:51:29;8.00;8.00;5.00
80289;PMS7003;69592;44.804;-0.550;2023-07-31T03:53:54;9.33;7.00;4.00
80289;PMS7003;69592;44.804;-0.550;2023-07-31T03:56:20;5.67;5.00;3.00
80289;PMS7003;69592;44.804;-0.550;2023-07-31T03:58:45;9.67;4.67;3.00
80289;PMS7003;69592;44.804;-0.550;2023-07-31T04:01:10;8.00;8.00;3.00
80289;PMS7003;69592;44.804;-0.550;2023-07-31T04:03:36;8.00;5.67;4.00
80289;PMS7003;69592;44.804;-0.550;2023-07-31T04:06:01;5.00;5.00;3.00
80289;PMS7003;69592;44.804;-0.550;2023-07-31T04:08:27;8.00;7.67;4.00
80289;PMS7003;69592;44.804;-0.550;2023-07-31T04:10:53;7.33;5.00;4.33
80289;PMS7003;69592;44.804;-0.550;2023-07-31T04:13:18;8.33;8.00;5.00
80289;PMS7003;69592;44.804;-0.550;2023-07-31T04:15:48;6.00;4.33;3.33
80289;PMS7003;69592;44.804;-0.550;2023-07-31T04:18:14;10.00;6.33;4.00
80289;PMS7003;69592;44.804;-0.550;2023-07-31T04:20:40;7.67;5.67;4.00
80289;PMS7003;69592;44.804;-0.550;2023-07-31T04:23:05;9.67;8.67;5.00
80289;PMS7003;69592;44.804;-0.550;2023-07-31T04:25:30;7.67;7.67;5.00
80289;PMS7003;69592;44.804;-0.550;2023-07-31T04:27:56;7.67;5.00;3.00
80289;PMS7003;69592;44.804;-0.550;2023-07-31T04:30:22;5.67;4.67;3.67
80289;PMS7003;69592;44.804;-0.550;2023-07-31T04:32:47;9.00;7.67;4.00
80289;PMS7003;69592;44.804;-0.550;2023-07-31T04:35:12;5.00;5.00;4.00
80289;PMS7003;69592;44.804;-0.550;2023-07-31T04:37:38;8.67;7.33;3.00
80289;PMS7003;69592;44.804;-0.550;2023-07-31T04:40:03;9.00;6.67;4.00
80289;PMS7003;69592;44.804;-0.550;2023-07-31T04:42:29;7.67;5.00;2.00
80289;PMS7003;69592;44.804;-0.550;2023-07-31T04:44:54;7.67;5.00;4.00
80289;PMS7003;69592;44.804;-0.550;2023-07-31T04:47:19;8.33;6.33;4.33
80289;PMS7003;69592;44.804;-0.550;2023-07-31T04:49:45;7.33;6.33;3.00
80289;PMS7003;69592;44.804;-0.550;2023-07-31T04:52:10;9.33;9.33;4.00
80289;PMS7003;69592;44.804;-0.550;2023-07-31T04:54:36;8.67;7.00;5.00
80289;PMS7003;69592;44.804;-0.550;2023-07-31T04:57:01;9.33;7.33;4.00
80289;PMS7003;69592;44.804;-0.550;2023-07-31T04:59:26;8.33;8.00;4.00
80289;PMS7003;69592;44.804;-0.550;2023-07-31T05:01:52;5.00;5.00;4.00
80289;PMS7003;69592;44.804;-0.550;2023-07-31T05:04:17;9.33;6.67;4.00
80289;PMS7003;69592;44.804;-0.550;2023-07-31T05:06:42;7.00;5.00;4.00
80289;PMS7003;69592;44.804;-0.550;2023-07-31T05:09:08;7.67;7.33;4.00
80289;PMS7003;69592;44.804;-0.550;2023-07-31T05:11:34;7.00;5.67;4.00
80289;PMS7003;69592;44.804;-0.550;2023-07-31T05:13:59;7.33;5.67;3.00
80289;PMS7003;69592;44.804;-0.550;2023-07-31T05:16:25;9.00;5.33;3.67
80289;PMS7003;69592;44.804;-0.550;2023-07-31T05:18:50;7.00;5.00;3.33
80289;PMS7003;69592;44.804;-0.550;2023-07-31T05:21:15;8.00;6.67;4.00
80289;PMS7003;69592;44.804;-0.550;2023-07-31T05:23:41;5.33;4.00;3.33
80289;PMS7003;69592;44.804;-0.550;2023-07-31T05:26:06;10.00;7.67;4.00
80289;PMS7003;69592;44.804;-0.550;2023-07-31T05:28:34;9.67;8.67;5.00
80289;PMS7003;69592;44.804;-0.550;2023-07-31T05:31:00;11.00;8.00;5.00
80289;PMS7003;69592;44.804;-0.550;2023-07-31T05:33:26;8.33;8.00;4.00
80289;PMS7003;69592;44.804;-0.550;2023-07-31T05:35:51;10.33;8.00;4.67
80289;PMS7003;69592;44.804;-0.550;2023-07-31T05:38:17;8.67;8.67;4.67
80289;PMS7003;69592;44.804;-0.550;2023-07-31T05:40:42;8.67;6.67;4.33
80289;PMS7003;69592;44.804;-0.550;2023-07-31T05:43:08;7.67;6.33;4.00
80289;PMS7003;69592;44.804;-0.550;2023-07-31T05:45:34;8.67;7.33;4.00
80289;PMS7003;69592;44.804;-0.550;2023-07-31T05:48:00;9.33;9.33;5.00
80289;PMS7003;69592;44.804;-0.550;2023-07-31T05:50:25;7.00;5.00;3.00
80289;PMS7003;69592;44.804;-0.550;2023-07-31T05:52:50;7.00;5.00;3.00
80289;PMS7003;69592;44.804;-0.550;2023-07-31T05:55:17;10.00;8.00;4.00
80289;PMS7003;69592;44.804;-0.550;2023-07-31T05:57:42;9.00;5.00;3.67
80289;PMS7003;69592;44.804;-0.550;2023-07-31T06:00:07;8.33;7.67;3.33
80289;PMS7003;69592;44.804;-0.550;2023-07-31T06:02:33;10.33;5.00;3.00
80289;PMS7003;69592;44.804;-0.550;2023-07-31T06:05:01;6.00;6.00;4.67
80289;PMS7003;69592;44.804;-0.550;2023-07-31T06:07:29;5.67;5.33;4.00
80289;PMS7003;69592;44.804;-0.550;2023-07-31T06:09:54;7.33;6.00;4.00
80289;PMS7003;69592;44.804;-0.550;2023-07-31T06:12:20;6.00;6.00;5.00
80289;PMS7003;69592;44.804;-0.550;2023-07-31T06:14:45;5.67;4.67;3.67
80289;PMS7003;69592;44.804;-0.550;2023-07-31T06:17:11;6.33;5.33;4.33
80289;PMS7003;69592;44.804;-0.550;2023-07-31T06:19:36;5.67;5.33;3.00
80289;PMS7003;69592;44.804;-0.550;2023-07-31T06:22:01;8.67;6.00;4.00
80289;PMS7003;69592;44.804;-0.550;2023-07-31T06:24:27;5.00;5.00;3.00
80289;PMS7003;69592;44.804;-0.550;2023-07-31T06:26:53;3.67;3.67;3.00
80289;PMS7003;69592;44.804;-0.550;2023-07-31T06:29:18;5.33;5.33;3.67
80289;PMS7003;69592;44.804;-0.550;2023-07-31T06:31:44;8.00;8.00;3.67
80289;PMS7003;69592;44.804;-0.550;2023-07-31T06:34:09;7.33;6.00;4.00
80289;PMS7003;69592;44.804;-0.550;2023-07-31T06:36:35;7.00;6.00;4.00
80289;PMS7003;69592;44.804;-0.550;2023-07-31T06:39:00;9.67;5.00;4.00
80289;PMS7003;69592;44.804;-0.550;2023-07-31T06:41:26;6.00;6.00;4.00
80289;PMS7003;69592;44.804;-0.550;2023-07-31T06:43:56;2.33;2.33;2.00
80289;PMS7003;69592;44.804;-0.550;2023-07-31T06:46:22;6.33;5.33;3.33
80289;PMS7003;69592;44.804;-0.550;2023-07-31T06:48:48;8.67;7.33;4.00
80289;PMS7003;69592;44.804;-0.550;2023-07-31T06:51:13;3.00;1.67;0.00
80289;PMS7003;69592;44.804;-0.550;2023-07-31T06:53:39;6.33;5.67;4.00
80289;PMS7003;69592;44.804;-0.550;2023-07-31T06:56:04;9.67;6.67;4.67
80289;PMS7003;69592;44.804;-0.550;2023-07-31T06:58:29;4.67;4.33;3.00
80289;PMS7003;69592;44.804;-0.550;2023-07-31T07:00:55;5.33;4.67;4.00
80289;PMS7003;69592;44.804;-0.550;2023-07-31T07:03:20;7.00;7.00;5.00
80289;PMS7003;69592;44.804;-0.550;2023-07-31T07:05:46;7.67;6.33;4.00
80289;PMS7003;69592;44.804;-0.550;2023-07-31T07:08:11;6.33;5.00;3.33
80289;PMS7003;69592;44.804;-0.550;2023-07-31T07:10:36;11.67;8.33;4.67
80289;PMS7003;69592;44.804;-0.550;2023-07-31T07:13:02;9.67;7.00;5.00
80289;PMS7003;69592;44.804;-0.550;2023-07-31T07:15:27;7.00;4.33;3.00
80289;PMS7003;69592;44.804;-0.550;2023-07-31T07:17:53;6.00;4.00;3.00
80289;PMS7003;69592;44.804;-0.550;2023-07-31T07:20:19;5.00;5.00;3.67
80289;PMS7003;69592;44.804;-0.550;2023-07-31T07:22:45;8.67;8.67;6.00
80289;PMS7003;69592;44.804;-0.550;2023-07-31T07:25:10;5.67;5.67;4.00
80289;PMS7003;69592;44.804;-0.550;2023-07-31T07:27:36;7.67;7.00;5.33
80289;PMS7003;69592;44.804;-0.550;2023-07-31T07:30:01;6.33;6.33;5.00
80289;PMS7003;69592;44.804;-0.550;2023-07-31T07:32:27;8.00;6.00;3.67
80289;PMS7003;69592;44.804;-0.550;2023-07-31T07:34:52;9.33;6.33;4.00
80289;PMS7003;69592;44.804;-0.550;2023-07-31T07:37:17;5.00;5.00;3.00
80289;PMS7003;69592;44.804;-0.550;2023-07-31T07:39:43;7.67;6.33;4.00
80289;PMS7003;69592;44.804;-0.550;2023-07-31T07:42:09;6.00;6.00;5.00
80289;PMS7003;69592;44.804;-0.550;2023-07-31T07:44:34;5.33;5.33;3.33
80289;PMS7003;69592;44.804;-0.550;2023-07-31T07:47:00;6.00;4.67;3.00
80289;PMS7003;69592;44.804;-0.550;2023-07-31T07:49:25;5.00;5.00;3.67
80289;PMS7003;69592;44.804;-0.550;2023-07-31T07:51:51;9.67;8.33;5.00
80289;PMS7003;69592;44.804;-0.550;2023-07-31T07:54:16;6.67;6.67;3.67
80289;PMS7003;69592;44.804;-0.550;2023-07-31T07:56:42;7.33;6.67;4.00
80289;PMS7003;69592;44.804;-0.550;2023-07-31T07:59:08;12.33;9.00;5.00
80289;PMS7003;69592;44.804;-0.550;2023-07-31T08:01:33;7.00;5.33;3.67
80289;PMS7003;69592;44.804;-0.550;2023-07-31T08:03:59;5.67;5.67;4.00
80289;PMS7003;69592;44.804;-0.550;2023-07-31T08:06:25;4.67;4.67;3.33
80289;PMS7003;69592;44.804;-0.550;2023-07-31T08:08:50;5.33;5.00;3.00
80289;PMS7003;69592;44.804;-0.550;2023-07-31T08:11:16;7.33;6.00;4.00
80289;PMS7003;69592;44.804;-0.550;2023-07-31T08:13:42;5.67;4.67;2.67
80289;PMS7003;69592;44.804;-0.550;2023-07-31T08:16:07;6.00;6.00;4.00
80289;PMS7003;69592;44.804;-0.550;2023-07-31T08:18:33;6.67;5.00;4.00
80289;PMS7003;69592;44.804;-0.550;2023-07-31T08:20:59;6.00;6.00;4.00
80289;PMS7003;69592;44.804;-0.550;2023-07-31T08:23:24;5.00;3.33;2.00
80289;PMS7003;69592;44.804;-0.550;2023-07-31T08:25:49;9.00;8.00;5.00
80289;PMS7003;69592;44.804;-0.550;2023-07-31T08:28:15;7.00;4.67;3.00
80289;PMS7003;69592;44.804;-0.550;2023-07-31T08:30:41;5.33;5.00;4.00
80289;PMS7003;69592;44.804;-0.550;2023-07-31T08:33:07;6.67;5.00;4.00
80289;PMS7003;69592;44.804;-0.550;2023-07-31T08:35:33;6.67;4.00;2.00
80289;PMS7003;69592;44.804;-0.550;2023-07-31T08:37:58;6.00;5.00;3.00
80289;PMS7003;69592;44.804;-0.550;2023-07-31T08:40:24;4.00;4.00;3.00
80289;PMS7003;69592;44.804;-0.550;2023-07-31T08:42:51;6.00;6.00;4.00
80289;PMS7003;69592;44.804;-0.550;2023-07-31T08:45:19;8.33;5.00;4.00
80289;PMS7003;69592;44.804;-0.550;2023-07-31T08:47:46;4.75;4.00;3.00
80289;PMS7003;69592;44.804;-0.550;2023-07-31T08:50:13;5.00;4.00;3.50
80289;PMS7003;69592;44.804;-0.550;2023-07-31T08:52:39;3.25;3.25;2.75
80289;PMS7003;69592;44.804;-0.550;2023-07-31T08:55:05;4.75;4.75;3.00
80289;PMS7003;69592;44.804;-0.550;2023-07-31T08:57:31;4.00;4.00;3.00
80289;PMS7003;69592;44.804;-0.550;2023-07-31T08:59:59;5.25;3.50;2.00
80289;PMS7003;69592;44.804;-0.550;2023-07-31T09:02:25;4.00;4.00;2.50
80289;PMS7003;69592;44.804;-0.550;2023-07-31T09:05:05;4.00;4.00;3.00
80289;PMS7003;69592;44.804;-0.550;2023-07-31T09:07:32;5.00;5.00;3.00
80289;PMS7003;69592;44.804;-0.550;2023-07-31T09:09:59;4.75;3.75;2.00
80289;PMS7003;69592;44.804;-0.550;2023-07-31T09:12:25;6.00;4.50;3.75
80289;PMS7003;69592;44.804;-0.550;2023-07-31T09:14:50;7.25;6.00;4.00
80289;PMS7003;69592;44.804;-0.550;2023-07-31T09:17:16;6.00;4.00;3.00
80289;PMS7003;69592;44.804;-0.550;2023-07-31T09:19:54;2.50;2.50;2.00
80289;PMS7003;69592;44.804;-0.550;2023-07-31T09:22:30;4.50;4.50;2.50
80289;PMS7003;69592;44.804;-0.550;2023-07-31T09:24:57;6.25;3.50;2.50
80289;PMS7003;69592;44.804;-0.550;2023-07-31T09:28:00;3.25;2.50;1.75
80289;PMS7003;69592;44.804;-0.550;2023-07-31T09:33:12;3.25;3.25;2.25
80289;PMS7003;69592;44.804;-0.550;2023-07-31T09:35:38;2.50;2.50;1.00
80289;PMS7003;69592;44.804;-0.550;2023-07-31T09:38:06;4.50;3.25;2.25
80289;PMS7003;69592;44.804;-0.550;2023-07-31T09:40:35;3.20;3.20;2.00
80289;PMS7003;69592;44.804;-0.550;2023-07-31T09:43:20;4.00;4.00;3.00
80289;PMS7003;69592;44.804;-0.550;2023-07-31T09:45:47;4.25;4.25;2.50
80289;PMS7003;69592;44.804;-0.550;2023-07-31T09:48:14;2.75;2.75;2.00
80289;PMS7003;69592;44.804;-0.550;2023-07-31T09:50:42;2.20;2.20;1.80
80289;PMS7003;69592;44.804;-0.550;2023-07-31T09:53:12;2.75;2.75;1.75
80289;PMS7003;69592;44.804;-0.550;2023-07-31T09:55:38;5.50;3.75;2.75
80289;PMS7003;69592;44.804;-0.550;2023-07-31T09:58:06;4.00;4.00;3.00
80289;PMS7003;69592;44.804;-0.550;2023-07-31T10:00:33;2.80;2.80;1.80
80289;PMS7003;69592;44.804;-0.550;2023-07-31T10:02:59;5.00;2.75;1.75
80289;PMS7003;69592;44.804;-0.550;2023-07-31T10:05:30;2.75;2.75;2.25
80289;PMS7003;69592;44.804;-0.550;2023-07-31T10:07:59;5.00;4.75;3.50
80289;PMS7003;69592;44.804;-0.550;2023-07-31T10:10:25;5.25;3.25;2.75
80289;PMS7003;69592;44.804;-0.550;2023-07-31T10:12:52;4.00;4.00;3.00
80289;PMS7003;69592;44.804;-0.550;2023-07-31T10:15:18;4.75;4.75;2.75
80289;PMS7003;69592;44.804;-0.550;2023-07-31T10:17:46;4.00;4.00;3.00
80289;PMS7003;69592;44.804;-0.550;2023-07-31T10:20:13;4.60;3.60;2.60
80289;PMS7003;69592;44.804;-0.550;2023-07-31T10:22:41;4.60;4.00;3.00
80289;PMS7003;69592;44.804;-0.550;2023-07-31T10:25:07;3.00;3.00;2.00
80289;PMS7003;69592;44.804;-0.550;2023-07-31T10:27:35;3.00;3.00;3.00
80289;PMS7003;69592;44.804;-0.550;2023-07-31T10:30:00;2.80;2.80;2.00
80289;PMS7003;69592;44.804;-0.550;2023-07-31T10:32:30;3.40;3.40;3.00
80289;PMS7003;69592;44.804;-0.550;2023-07-31T10:34:55;3.50;3.00;2.00
80289;PMS7003;69592;44.804;-0.550;2023-07-31T10:37:26;5.20;4.20;3.20
80289;PMS7003;69592;44.804;-0.550;2023-07-31T10:39:57;3.80;3.80;3.00
80289;PMS7003;69592;44.804;-0.550;2023-07-31T10:42:30;2.20;2.20;2.00
80289;PMS7003;69592;44.804;-0.550;2023-07-31T10:44:58;5.25;5.25;4.25
80289;PMS7003;69592;44.804;-0.550;2023-07-31T10:47:25;4.40;4.00;3.00
80289;PMS7003;69592;44.804;-0.550;2023-07-31T10:49:51;4.00;3.25;2.25
80289;PMS7003;69592;44.804;-0.550;2023-07-31T10:52:21;2.40;2.40;2.00
80289;PMS7003;69592;44.804;-0.550;2023-07-31T10:55:13;3.20;2.80;2.40
80289;PMS7003;69592;44.804;-0.550;2023-07-31T10:57:44;3.20;3.20;3.00
80289;PMS7003;69592;44.804;-0.550;2023-07-31T11:00:22;4.80;4.60;4.00
80289;PMS7003;69592;44.804;-0.550;2023-07-31T11:05:40;5.00;4.20;2.80
80289;PMS7003;69592;44.804;-0.550;2023-07-31T11:08:22;3.00;3.00;2.00
80289;PMS7003;69592;44.804;-0.550;2023-07-31T11:10:49;6.20;4.40;3.60
80289;PMS7003;69592;44.804;-0.550;2023-07-31T11:13:16;8.80;5.60;4.40
80289;PMS7003;69592;44.804;-0.550;2023-07-31T11:15:42;6.00;5.00;4.00
80289;PMS7003;69592;44.804;-0.550;2023-07-31T11:18:07;6.00;6.00;4.50
80289;PMS7003;69592;44.804;-0.550;2023-07-31T11:20:35;6.40;6.00;5.00
80289;PMS7003;69592;44.804;-0.550;2023-07-31T11:23:03;5.40;5.00;4.00
80289;PMS7003;69592;44.804;-0.550;2023-07-31T11:25:31;5.40;5.40;4.20
80289;PMS7003;69592;44.804;-0.550;2023-07-31T11:27:58;5.25;5.00;5.00
80289;PMS7003;69592;44.804;-0.550;2023-07-31T11:30:31;7.20;6.00;5.00
80289;PMS7003;69592;44.804;-0.550;2023-07-31T11:32:56;6.00;6.00;4.25
80289;PMS7003;69592;44.804;-0.550;2023-07-31T11:35:22;5.00;5.00;4.00
80289;PMS7003;69592;44.804;-0.550;2023-07-31T11:37:47;6.75;6.75;4.00
80289;PMS7003;69592;44.804;-0.550;2023-07-31T11:40:13;5.00;5.00;4.00
80289;PMS7003;69592;44.804;-0.550;2023-07-31T11:42:39;9.40;7.20;5.00
80289;PMS7003;69592;44.804;-0.550;2023-07-31T11:45:06;7.00;6.00;4.00
80289;PMS7003;69592;44.804;-0.550;2023-07-31T11:47:33;6.20;6.20;4.40
80289;PMS7003;69592;44.804;-0.550;2023-07-31T11:50:00;5.20;5.20;4.00
80289;PMS7003;69592;44.804;-0.550;2023-07-31T11:52:26;6.80;6.40;4.00
80289;PMS7003;69592;44.804;-0.550;2023-07-31T11:54:55;6.60;5.60;3.80
80289;PMS7003;69592;44.804;-0.550;2023-07-31T11:57:21;5.60;4.20;3.00
80289;PMS7003;69592;44.804;-0.550;2023-07-31T11:59:47;5.60;5.60;5.00
80289;PMS7003;69592;44.804;-0.550;2023-07-31T12:02:17;4.00;4.00;3.20
80289;PMS7003;69592;44.804;-0.550;2023-07-31T12:04:43;4.40;4.40;4.20
80289;PMS7003;69592;44.804;-0.550;2023-07-31T12:07:10;7.20;4.40;4.00
80289;PMS7003;69592;44.804;-0.550;2023-07-31T12:09:37;4.20;4.20;3.40
80289;PMS7003;69592;44.804;-0.550;2023-07-31T12:12:02;5.25;4.00;3.00
80289;PMS7003;69592;44.804;-0.550;2023-07-31T12:14:33;4.20;4.20;3.00
80289;PMS7003;69592;44.804;-0.550;2023-07-31T12:16:59;4.00;4.00;3.50
80289;PMS7003;69592;44.804;-0.550;2023-07-31T12:19:26;4.00;3.60;3.00
80289;PMS7003;69592;44.804;-0.550;2023-07-31T12:21:55;4.80;4.80;3.40
80289;PMS7003;69592;44.804;-0.550;2023-07-31T12:24:21;4.80;4.20;3.40
80289;PMS7003;69592;44.804;-0.550;2023-07-31T12:26:47;3.00;2.75;2.50
80289;PMS7003;69592;44.804;-0.550;2023-07-31T12:29:13;3.00;3.00;3.00
80289;PMS7003;69592;44.804;-0.550;2023-07-31T12:31:40;4.50;4.50;3.00
80289;PMS7003;69592;44.804;-0.550;2023-07-31T12:34:14;4.00;3.00;2.00
80289;PMS7003;69592;44.804;-0.550;2023-07-31T12:36:41;3.20;1.80;1.00
80289;PMS7003;69592;44.804;-0.550;2023-07-31T12:39:07;3.40;3.40;2.60
80289;PMS7003;69592;44.804;-0.550;2023-07-31T12:41:33;2.50;2.50;2.00
80289;PMS7003;69592;44.804;-0.550;2023-07-31T12:43:58;2.50;2.50;1.75
80289;PMS7003;69592;44.804;-0.550;2023-07-31T12:46:24;2.00;2.00;2.00
80289;PMS7003;69592;44.804;-0.550;2023-07-31T12:48:49;2.00;2.00;2.00
80289;PMS7003;69592;44.804;-0.550;2023-07-31T12:51:14;4.00;4.00;3.00
80289;PMS7003;69592;44.804;-0.550;2023-07-31T12:53:40;2.00;2.00;1.25
80289;PMS7003;69592;44.804;-0.550;2023-07-31T12:56:05;3.00;3.00;2.00
80289;PMS7003;69592;44.804;-0.550;2023-07-31T12:58:31;3.00;3.00;1.25
80289;PMS7003;69592;44.804;-0.550;2023-07-31T13:00:56;4.00;4.00;2.75
80289;PMS7003;69592;44.804;-0.550;2023-07-31T13:03:22;2.75;2.75;2.00
80289;PMS7003;69592;44.804;-0.550;2023-07-31T13:05:47;2.50;2.50;2.00
80289;PMS7003;69592;44.804;-0.550;2023-07-31T13:08:12;2.25;2.25;2.00
80289;PMS7003;69592;44.804;-0.550;2023-07-31T13:10:40;5.20;3.60;2.80
80289;PMS7003;69592;44.804;-0.550;2023-07-31T13:13:05;4.00;4.00;3.00
80289;PMS7003;69592;44.804;-0.550;2023-07-31T13:15:31;3.25;3.25;2.00
80289;PMS7003;69592;44.804;-0.550;2023-07-31T13:17:56;2.00;2.00;1.00
80289;PMS7003;69592;44.804;-0.550;2023-07-31T13:20:22;2.25;2.25;1.25
80289;PMS7003;69592;44.804;-0.550;2023-07-31T13:22:47;2.25;2.25;2.00
80289;PMS7003;69592;44.804;-0.550;2023-07-31T13:25:13;5.50;3.00;2.25
80289;PMS7003;69592;44.804;-0.550;2023-07-31T13:27:38;3.00;3.00;2.50
80289;PMS7003;69592;44.804;-0.550;2023-07-31T13:30:03;2.50;2.50;2.00
80289;PMS7003;69592;44.804;-0.550;2023-07-31T13:32:29;1.80;1.80;1.40
80289;PMS7003;69592;44.804;-0.550;2023-07-31T13:34:55;2.50;2.00;2.00
80289;PMS7003;69592;44.804;-0.550;2023-07-31T13:37:20;1.75;1.75;1.00
80289;PMS7003;69592;44.804;-0.550;2023-07-31T13:39:46;3.00;2.00;2.00
80289;PMS7003;69592;44.804;-0.550;2023-07-31T13:42:11;2.00;2.00;1.75
80289;PMS7003;69592;44.804;-0.550;2023-07-31T13:44:42;0.00;0.00;0.00
80289;PMS7003;69592;44.804;-0.550;2023-07-31T13:47:08;1.80;1.80;1.80
80289;PMS7003;69592;44.804;-0.550;2023-07-31T13:49:34;2.60;2.40;2.00
80289;PMS7003;69592;44.804;-0.550;2023-07-31T13:52:00;3.00;3.00;2.00
80289;PMS7003;69592;44.804;-0.550;2023-07-31T13:54:26;3.75;1.75;1.00
80289;PMS7003;69592;44.804;-0.550;2023-07-31T13:56:52;2.75;2.75;1.75
80289;PMS7003;69592;44.804;-0.550;2023-07-31T13:59:17;3.75;3.25;2.00
80289;PMS7003;69592;44.804;-0.550;2023-07-31T14:01:43;1.50;1.50;0.75
80289;PMS7003;69592;44.804;-0.550;2023-07-31T14:04:09;2.80;2.20;1.80
80289;PMS7003;69592;44.804;-0.550;2023-07-31T14:06:35;4.00;2.75;2.75
80289;PMS7003;69592;44.804;-0.550;2023-07-31T14:09:00;2.00;2.00;2.00
80289;PMS7003;69592;44.804;-0.550;2023-07-31T14:11:26;3.75;2.50;2.00
80289;PMS7003;69592;44.804;-0.550;2023-07-31T14:13:51;1.25;1.25;1.25
80289;PMS7003;69592;44.804;-0.550;2023-07-31T14:16:17;1.00;1.00;1.00
80289;PMS7003;69592;44.804;-0.550;2023-07-31T14:18:43;2.00;2.00;2.00